createdAt,value
2022-12-11T00:01:16.555Z,97031.19
2022-12-11T00:03:47.251Z,97035.06
2022-12-11T00:06:17.727Z,97040.81
2022-12-11T00:08:46.632Z,97050.56
2022-12-11T00:11:17.594Z,97058.72
2022-12-11T00:13:46.095Z,97054.59
2022-12-11T00:16:15.411Z,97058.75
2022-12-11T00:18:43.846Z,97074.63
2022-12-11T00:21:14.721Z,97075.81
2022-12-11T00:23:43.835Z,97080.25
2022-12-11T00:26:16.077Z,97077.66
2022-12-11T00:28:47.178Z,97090.28
2022-12-11T00:31:18.735Z,97089.00
2022-12-11T00:33:49.169Z,97081.34
2022-12-11T00:36:20.153Z,97089.25
2022-12-11T00:38:49.143Z,97113.91
2022-12-11T00:41:18.950Z,97115.13
2022-12-11T00:43:49.426Z,97111.53
2022-12-11T00:46:18.313Z,97123.31
2022-12-11T00:48:48.626Z,97130.41
2022-12-11T00:51:17.722Z,97136.47
2022-12-11T00:53:46.259Z,97133.09
2022-12-11T00:56:18.022Z,97132.13
2022-12-11T00:58:48.620Z,97132.34
2022-12-11T01:01:20.609Z,97121.69
2022-12-11T01:03:49.359Z,97127.56
2022-12-11T01:06:20.782Z,97119.47
2022-12-11T01:09:09.684Z,97123.09
2022-12-11T01:11:37.587Z,97122.47
2022-12-11T01:14:07.856Z,97118.41
2022-12-11T01:16:36.806Z,97119.25
2022-12-11T01:19:05.322Z,97113.09
2022-12-11T01:21:34.034Z,97121.19
2022-12-11T01:24:02.474Z,97132.91
2022-12-11T01:26:31.297Z,97128.41
2022-12-11T01:29:00.242Z,97149.47
2022-12-11T01:31:31.208Z,97148.19
2022-12-11T01:33:59.694Z,97168.22
2022-12-11T01:36:28.469Z,97158.53
2022-12-11T01:38:57.628Z,97166.41
2022-12-11T01:41:26.370Z,97164.75
2022-12-11T01:44:03.370Z,97171.09
2022-12-11T01:46:35.559Z,97181.28
2022-12-11T01:49:07.201Z,97204.97
2022-12-11T01:51:41.229Z,97197.53
2022-12-11T01:54:14.637Z,97202.38
2022-12-11T01:56:46.080Z,97187.88
2022-12-11T01:59:18.919Z,97217.34
2022-12-11T02:01:56.171Z,97217.34
2022-12-11T02:04:25.589Z,97220.53
2022-12-11T02:06:54.628Z,97237.72
2022-12-11T02:09:28.919Z,97238.16
2022-12-11T02:12:03.758Z,97239.97
2022-12-11T02:14:40.096Z,97247.94
2022-12-11T02:17:14.687Z,97239.53
2022-12-11T02:19:53.211Z,97288.84
2022-12-11T02:22:40.684Z,97277.88
2022-12-11T02:25:21.947Z,97279.19
2022-12-11T02:27:58.411Z,97287.84
2022-12-11T02:30:28.764Z,97268.50
2022-12-11T02:32:59.277Z,97288.19
2022-12-11T02:35:33.259Z,97308.19
2022-12-11T02:38:06.820Z,97311.53
2022-12-11T02:40:40.338Z,97310.84
2022-12-11T02:43:13.916Z,97329.50
2022-12-11T02:45:47.570Z,97331.47
2022-12-11T02:48:18.942Z,97339.91
2022-12-11T02:50:52.576Z,97346.84
2022-12-11T02:53:25.371Z,97358.34
2022-12-11T02:56:00.285Z,97353.28
2022-12-11T02:58:33.528Z,97365.13
2022-12-11T03:01:03.499Z,97368.38
2022-12-11T03:03:32.281Z,97382.78
2022-12-11T03:06:01.440Z,97377.94
2022-12-11T03:08:30.302Z,97383.94
2022-12-11T03:10:58.924Z,97390.34
2022-12-11T03:13:28.277Z,97395.03
2022-12-11T03:16:12.109Z,97392.94
2022-12-11T03:18:45.009Z,97392.31
2022-12-11T03:21:18.324Z,97401.84
2022-12-11T03:23:53.260Z,97396.31
2022-12-11T03:26:24.468Z,97413.94
2022-12-11T03:28:59.582Z,97418.16
2022-12-11T03:31:35.916Z,97426.31
2022-12-11T03:34:12.160Z,97432.31
2022-12-11T03:36:41.403Z,97428.63
2022-12-11T03:39:16.468Z,97441.47
2022-12-11T03:41:47.483Z,97442.41
2022-12-11T03:44:18.532Z,97449.97
2022-12-11T03:46:51.583Z,97433.13
2022-12-11T03:49:24.358Z,97443.44
2022-12-11T03:51:55.727Z,97447.59
2022-12-11T03:54:25.553Z,97456.28
2022-12-11T03:56:58.263Z,97456.16
2022-12-11T03:59:27.251Z,97455.56
2022-12-11T04:01:57.165Z,97463.94
2022-12-11T04:04:26.003Z,97470.94
2022-12-11T04:06:54.366Z,97480.25
2022-12-11T04:09:23.102Z,97484.75
2022-12-11T04:11:51.582Z,97482.97
2022-12-11T04:14:38.018Z,97497.72
2022-12-11T04:17:07.841Z,97521.22
2022-12-11T04:19:54.268Z,97524.88
2022-12-11T04:22:40.260Z,97527.69
2022-12-11T04:25:09.862Z,97536.06
2022-12-11T04:27:50.568Z,97520.97
2022-12-11T04:30:22.592Z,97536.94
2022-12-11T04:32:53.628Z,97554.09
2022-12-11T04:35:23.460Z,97557.28
2022-12-11T04:37:53.070Z,97547.91
2022-12-11T04:40:22.236Z,97559.22
2022-12-11T04:42:50.807Z,97571.34
2022-12-11T04:45:19.668Z,97570.94
2022-12-11T04:47:48.077Z,97585.00
2022-12-11T04:50:18.293Z,97585.28
2022-12-11T04:52:46.816Z,97589.59
2022-12-11T04:55:15.853Z,97597.53
2022-12-11T04:57:44.300Z,97590.97
2022-12-11T05:00:14.211Z,97598.66
2022-12-11T05:02:43.707Z,97603.06
2022-12-11T05:05:13.503Z,97609.63
2022-12-11T05:07:43.735Z,97612.38
2022-12-11T05:10:12.415Z,97623.19
2022-12-11T05:12:40.879Z,97629.03
2022-12-11T05:15:10.816Z,97637.22
2022-12-11T05:17:39.582Z,97624.56
2022-12-11T05:20:09.604Z,97633.44
2022-12-11T05:22:38.757Z,97635.09
2022-12-11T05:25:09.977Z,97628.34
2022-12-11T05:27:38.521Z,97630.47
2022-12-11T05:30:08.641Z,97647.44
2022-12-11T05:32:37.102Z,97642.34
2022-12-11T05:35:06.798Z,97647.56
2022-12-11T05:37:35.593Z,97646.13
2022-12-11T05:40:06.425Z,97663.38
2022-12-11T05:42:36.535Z,97653.97
2022-12-11T05:45:06.488Z,97658.63
2022-12-11T05:47:34.975Z,97663.91
2022-12-11T05:50:03.715Z,97673.44
2022-12-11T05:52:33.383Z,97665.59
2022-12-11T05:55:02.094Z,97680.16
2022-12-11T05:57:30.515Z,97689.34
2022-12-11T06:00:00.533Z,97693.88
2022-12-11T06:02:29.005Z,97698.47
2022-12-11T06:04:57.977Z,97692.38
2022-12-11T06:07:26.314Z,97691.59
2022-12-11T06:09:55.082Z,97706.72
2022-12-11T06:12:23.490Z,97700.81
2022-12-11T06:14:52.113Z,97710.09
2022-12-11T06:17:21.876Z,97712.28
2022-12-11T06:19:50.581Z,97718.41
2022-12-11T06:22:19.084Z,97711.75
2022-12-11T06:24:48.096Z,97726.78
2022-12-11T06:27:16.595Z,97723.97
2022-12-11T06:29:45.349Z,97727.16
2022-12-11T06:32:13.849Z,97725.34
2022-12-11T06:34:43.900Z,97721.19
2022-12-11T06:37:12.365Z,97726.84
2022-12-11T06:39:41.236Z,97733.00
2022-12-11T06:42:09.560Z,97741.59
2022-12-11T06:44:38.355Z,97745.75
2022-12-11T06:47:06.750Z,97743.16
2022-12-11T06:49:35.507Z,97746.59
2022-12-11T06:52:07.007Z,97748.50
2022-12-11T06:54:36.435Z,97764.72
2022-12-11T06:57:05.290Z,97760.56
2022-12-11T06:59:35.080Z,97768.41
2022-12-11T07:02:03.542Z,97765.00
2022-12-11T07:04:32.380Z,97770.25
2022-12-11T07:07:01.036Z,97760.66
2022-12-11T07:09:31.333Z,97766.00
2022-12-11T07:11:59.779Z,97780.56
2022-12-11T07:14:28.462Z,97785.81
2022-12-11T07:16:57.228Z,97802.13
2022-12-11T07:19:26.090Z,97807.28
2022-12-11T07:21:54.722Z,97819.31
2022-12-11T07:24:23.994Z,97813.13
2022-12-11T07:26:54.048Z,97830.41
2022-12-11T07:29:22.805Z,97831.28
2022-12-11T07:31:51.258Z,97839.72
2022-12-11T07:34:20.049Z,97845.78
2022-12-11T07:36:48.490Z,97848.25
2022-12-11T07:39:17.290Z,97855.91
2022-12-11T07:41:47.068Z,97855.03
2022-12-11T07:44:19.143Z,97865.63
2022-12-11T07:46:47.682Z,97867.38
2022-12-11T07:49:17.211Z,97884.47
2022-12-11T07:51:45.699Z,97885.38
2022-12-11T07:54:16.951Z,97896.63
2022-12-11T07:56:52.756Z,97902.66
2022-12-11T07:59:23.854Z,97901.72
2022-12-11T08:01:52.302Z,97907.75
2022-12-11T08:04:21.014Z,97900.00
2022-12-11T08:06:49.500Z,97914.72
2022-12-11T08:09:22.680Z,97913.84
2022-12-11T08:11:51.567Z,97914.59
2022-12-11T08:14:20.768Z,97929.28
2022-12-11T08:16:50.978Z,97924.84
2022-12-11T08:19:19.813Z,97918.59
2022-12-11T08:21:48.177Z,97937.81
2022-12-11T08:24:20.617Z,97936.88
2022-12-11T08:26:49.545Z,97945.44
2022-12-11T08:29:19.679Z,97939.63
2022-12-11T08:31:48.235Z,97945.47
2022-12-11T08:34:18.314Z,97953.00
2022-12-11T08:36:46.898Z,97946.91
2022-12-11T08:39:15.691Z,97944.50
2022-12-11T08:41:44.132Z,97947.03
2022-12-11T08:44:16.732Z,97948.06
2022-12-11T08:46:45.847Z,97944.63
2022-12-11T08:49:14.823Z,97955.06
2022-12-11T08:51:44.600Z,97959.31
2022-12-11T08:54:13.352Z,97955.91
2022-12-11T08:56:41.811Z,97958.44
2022-12-11T08:59:10.941Z,97970.50
2022-12-11T09:01:39.505Z,97965.31
2022-12-11T09:04:08.405Z,97971.28
2022-12-11T09:06:36.901Z,97959.81
2022-12-11T09:09:08.172Z,97968.81
2022-12-11T09:11:38.645Z,97960.03
2022-12-11T09:14:08.365Z,97960.88
2022-12-11T09:16:40.457Z,97947.88
2022-12-11T09:19:12.692Z,97957.31
2022-12-11T09:21:41.985Z,97962.44
2022-12-11T09:24:13.595Z,97965.72
2022-12-11T09:26:42.622Z,97956.34
2022-12-11T09:29:12.197Z,97955.47
2022-12-11T09:31:40.669Z,97941.16
2022-12-11T09:34:12.588Z,97939.56
2022-12-11T09:36:42.136Z,97927.19
2022-12-11T09:39:13.652Z,97933.34
2022-12-11T09:41:50.887Z,97925.72
2022-12-11T09:44:26.869Z,97939.53
2022-12-11T09:46:55.529Z,97934.38
2022-12-11T09:49:29.710Z,97935.22
2022-12-11T09:52:06.062Z,97939.53
2022-12-11T09:54:36.797Z,97947.19
2022-12-11T09:57:19.664Z,97941.03
2022-12-11T10:00:04.919Z,97954.84
2022-12-11T10:02:47.769Z,97950.34
2022-12-11T10:05:23.547Z,97953.97
2022-12-11T10:08:00.703Z,97942.78
2022-12-11T10:10:42.806Z,97952.88
2022-12-11T10:13:26.085Z,97957.88
2022-12-11T10:16:00.279Z,97954.53
2022-12-11T10:18:30.996Z,97959.72
2022-12-11T10:21:03.457Z,97956.03
2022-12-11T10:23:36.608Z,97963.03
2022-12-11T10:26:09.629Z,97962.16
2022-12-11T10:28:38.144Z,97958.91
2022-12-11T10:31:17.238Z,97958.25
2022-12-11T10:33:55.924Z,97957.09
2022-12-11T10:36:29.045Z,97953.69
2022-12-11T10:38:57.885Z,97952.88
2022-12-11T10:41:38.097Z,97947.31
2022-12-11T10:44:17.559Z,97940.63
2022-12-11T10:46:47.074Z,97936.41
2022-12-11T10:49:24.562Z,97916.63
2022-12-11T10:51:54.358Z,97903.69
2022-12-11T10:54:32.286Z,97897.63
2022-12-11T10:57:04.870Z,97915.09
2022-12-11T10:59:39.520Z,97910.78
2022-12-11T11:02:23.039Z,97907.25
2022-12-11T11:04:52.888Z,97905.50
2022-12-11T11:07:25.115Z,97917.56
2022-12-11T11:10:07.700Z,97920.72
2022-12-11T11:12:42.367Z,97922.09
2022-12-11T11:15:15.311Z,97919.31
2022-12-11T11:17:54.463Z,97927.41
2022-12-11T11:20:25.901Z,97926.00
2022-12-11T11:22:57.277Z,97941.03
2022-12-11T11:25:27.291Z,97938.53
2022-12-11T11:27:59.320Z,97948.28
2022-12-11T11:30:30.856Z,97944.91
2022-12-11T11:33:03.668Z,97944.06
2022-12-11T11:35:33.264Z,97932.75
2022-12-11T11:38:06.957Z,97939.84
2022-12-11T11:40:40.735Z,97949.41
2022-12-11T11:43:19.958Z,97942.31
2022-12-11T11:45:54.895Z,97950.34
2022-12-11T11:48:34.341Z,97944.22
2022-12-11T11:51:14.783Z,97938.09
2022-12-11T11:53:49.333Z,97925.22
2022-12-11T11:56:25.280Z,97924.56
2022-12-11T11:59:07.292Z,97922.00
2022-12-11T12:01:35.948Z,97916.78
2022-12-11T12:04:05.992Z,97925.38
2022-12-11T12:07:05.581Z,97926.13
2022-12-11T12:09:46.867Z,97927.88
2022-12-11T12:12:29.753Z,97923.25
2022-12-11T12:15:19.370Z,97924.69
2022-12-11T12:17:56.116Z,97932.59
2022-12-11T12:20:36.838Z,97930.06
2022-12-11T12:23:24.324Z,97924.25
2022-12-11T12:26:01.141Z,97936.41
2022-12-11T12:28:39.493Z,97943.47
2022-12-11T12:31:26.177Z,97941.66
2022-12-11T12:34:05.524Z,97937.31
2022-12-11T12:36:41.355Z,97935.13
2022-12-11T12:39:19.458Z,97931.31
2022-12-11T12:42:01.345Z,97941.63
2022-12-11T12:44:43.517Z,97942.44
2022-12-11T12:47:16.855Z,97949.34
2022-12-11T12:49:48.027Z,97961.69
2022-12-11T12:52:19.854Z,97969.38
2022-12-11T12:55:05.964Z,97976.16
2022-12-11T12:57:36.294Z,97970.72
2022-12-11T13:00:12.545Z,97961.16
2022-12-11T13:02:51.525Z,97972.63
2022-12-11T13:05:26.006Z,97976.19
2022-12-11T13:07:58.402Z,97982.34
2022-12-11T13:10:31.390Z,97992.75
2022-12-11T13:13:01.408Z,97994.31
2022-12-11T13:15:42.669Z,97987.38
2022-12-11T13:18:35.921Z,97996.09
2022-12-11T13:21:25.423Z,98005.56
2022-12-11T13:23:54.519Z,98002.25
2022-12-11T13:26:30.881Z,98011.41
2022-12-11T13:29:00.171Z,98007.88
2022-12-11T13:31:38.228Z,98020.06
2022-12-11T13:34:22.777Z,98023.66
2022-12-11T13:36:54.239Z,98020.22
2022-12-11T13:39:26.180Z,98015.78
2022-12-11T13:41:58.789Z,98020.97
2022-12-11T13:44:30.745Z,98019.41
2022-12-11T13:47:01.743Z,98019.41
2022-12-11T13:49:37.140Z,98032.41
2022-12-11T13:52:07.313Z,98033.25
2022-12-11T13:54:37.586Z,98037.59
2022-12-11T13:57:18.022Z,98032.34
2022-12-11T13:59:50.280Z,98028.94
2022-12-11T14:02:24.020Z,98048.66
2022-12-11T14:04:58.523Z,98047.00
2022-12-11T14:07:30.893Z,98060.84
2022-12-11T14:10:03.732Z,98041.84
2022-12-11T14:12:33.960Z,98046.13
2022-12-11T14:15:05.434Z,98040.97
2022-12-11T14:17:36.510Z,98029.75
2022-12-11T14:20:08.525Z,98039.31
2022-12-11T14:22:37.275Z,98028.97
2022-12-11T14:25:21.828Z,98030.66
2022-12-11T14:27:52.582Z,98029.81
2022-12-11T14:30:27.345Z,98039.28
2022-12-11T14:32:59.466Z,98050.50
2022-12-11T14:35:38.387Z,98041.84
2022-12-11T14:38:17.533Z,98040.06
2022-12-11T14:40:50.416Z,98042.69
2022-12-11T14:43:24.669Z,98041.75
2022-12-11T14:46:00.482Z,98042.56
2022-12-11T14:48:34.089Z,98046.94
2022-12-11T14:51:08.805Z,98042.50
2022-12-11T14:53:41.573Z,98045.94
2022-12-11T14:56:19.369Z,98059.72
2022-12-11T14:58:53.999Z,98048.41
2022-12-11T15:01:25.835Z,98063.25
2022-12-11T15:04:05.763Z,98058.97
2022-12-11T15:06:44.032Z,98059.91
2022-12-11T15:09:25.830Z,98071.97
2022-12-11T15:11:58.021Z,98064.16
2022-12-11T15:14:28.020Z,98065.03
2022-12-11T15:16:58.818Z,98066.56
2022-12-11T15:19:31.586Z,98065.78
2022-12-11T15:22:05.977Z,98073.66
2022-12-11T15:24:39.438Z,98079.72
2022-12-11T15:27:25.107Z,98079.63
2022-12-11T15:29:53.627Z,98082.13
2022-12-11T15:32:23.685Z,98086.66
2022-12-11T15:34:54.038Z,98083.16
2022-12-11T15:37:26.694Z,98077.81
2022-12-11T15:39:56.883Z,98078.56
2022-12-11T15:42:28.814Z,98076.81
2022-12-11T15:44:58.194Z,98084.34
2022-12-11T15:47:29.043Z,98089.69
2022-12-11T15:50:00.748Z,98080.91
2022-12-11T15:52:31.107Z,98076.25
2022-12-11T15:54:59.551Z,98082.69
2022-12-11T15:57:28.362Z,98076.31
2022-12-11T15:59:57.260Z,98083.56
2022-12-11T16:02:26.907Z,98092.19
2022-12-11T16:04:57.692Z,98088.56
2022-12-11T16:07:27.755Z,98085.97
2022-12-11T16:09:57.661Z,98084.63
2022-12-11T16:12:26.990Z,98088.91
2022-12-11T16:14:55.372Z,98089.84
2022-12-11T16:17:24.188Z,98093.22
2022-12-11T16:19:54.719Z,98086.47
2022-12-11T16:22:23.597Z,98093.28
2022-12-11T16:24:54.784Z,98091.69
2022-12-11T16:27:25.161Z,98082.25
2022-12-11T16:29:53.781Z,98083.97
2022-12-11T16:32:22.617Z,98088.28
2022-12-11T16:34:51.272Z,98085.78
2022-12-11T16:37:20.153Z,98085.72
2022-12-11T16:39:48.635Z,98080.56
2022-12-11T16:42:17.470Z,98082.31
2022-12-11T16:44:47.507Z,98086.66
2022-12-11T16:47:16.390Z,98088.31
2022-12-11T16:49:45.343Z,98083.09
2022-12-11T16:52:18.985Z,98087.31
2022-12-11T16:54:50.481Z,98087.34
2022-12-11T16:57:19.332Z,98086.47
2022-12-11T16:59:49.901Z,98085.53
2022-12-11T17:02:19.315Z,98074.19
2022-12-11T17:04:53.635Z,98067.72
2022-12-11T17:07:22.929Z,98081.38
2022-12-11T17:09:51.645Z,98082.94
2022-12-11T17:12:25.797Z,98083.31
2022-12-11T17:14:56.154Z,98087.44
2022-12-11T17:17:25.574Z,98081.31
2022-12-11T17:19:54.104Z,98083.78
2022-12-11T17:22:23.349Z,98090.53
2022-12-11T17:24:51.974Z,98092.78
2022-12-11T17:27:21.082Z,98085.94
2022-12-11T17:29:50.932Z,98088.22
2022-12-11T17:32:21.227Z,98094.09
2022-12-11T17:34:50.548Z,98090.88
2022-12-11T17:37:20.216Z,98082.03
2022-12-11T17:39:48.807Z,98072.59
2022-12-11T17:42:17.812Z,98087.84
2022-12-11T17:44:46.587Z,98092.63
2022-12-11T17:47:15.424Z,98091.78
2022-12-11T17:49:45.459Z,98087.91
2022-12-11T17:52:14.178Z,98093.22
2022-12-11T17:54:42.963Z,98091.41
2022-12-11T17:57:11.906Z,98098.41
2022-12-11T17:59:40.458Z,98100.28
2022-12-11T18:02:10.713Z,98100.09
2022-12-11T18:04:39.690Z,98099.16
2022-12-11T18:07:10.034Z,98091.03
2022-12-11T18:09:40.813Z,98089.25
2022-12-11T18:12:10.687Z,98091.69
2022-12-11T18:14:39.326Z,98096.50
2022-12-11T18:17:08.417Z,98092.88
2022-12-11T18:19:40.232Z,98098.72
2022-12-11T18:22:14.690Z,98093.47
2022-12-11T18:24:43.206Z,98100.44
2022-12-11T18:27:14.492Z,98092.59
2022-12-11T18:29:43.066Z,98090.16
2022-12-11T18:32:11.793Z,98094.31
2022-12-11T18:34:40.287Z,98096.38
2022-12-11T18:37:09.179Z,98097.50
2022-12-11T18:39:39.152Z,98098.31
2022-12-11T18:42:32.333Z,98099.16
2022-12-11T18:44:56.951Z,98095.56
2022-12-11T18:47:25.894Z,98091.72
2022-12-11T18:49:55.165Z,98100.34
2022-12-11T18:52:24.299Z,98102.63
2022-12-11T18:54:54.233Z,98098.69
2022-12-11T18:57:23.186Z,98107.09
2022-12-11T18:59:53.113Z,98112.38
2022-12-11T19:02:23.057Z,98119.72
2022-12-11T19:04:51.606Z,98130.03
2022-12-11T19:07:20.469Z,98124.56
2022-12-11T19:09:49.072Z,98128.78
2022-12-11T19:12:19.847Z,98115.94
2022-12-11T19:14:48.871Z,98109.03
2022-12-11T19:17:17.864Z,98119.03
2022-12-11T19:19:47.435Z,98118.16
2022-12-11T19:22:16.385Z,98125.47
2022-12-11T19:24:45.147Z,98128.06
2022-12-11T19:27:14.252Z,98126.38
2022-12-11T19:29:44.698Z,98125.00
2022-12-11T19:32:13.573Z,98134.25
2022-12-11T19:34:41.980Z,98136.59
2022-12-11T19:37:10.822Z,98138.81
2022-12-11T19:39:40.442Z,98145.03
2022-12-11T19:42:09.125Z,98148.28
2022-12-11T19:44:37.812Z,98140.41
2022-12-11T19:47:08.392Z,98139.72
2022-12-11T19:49:37.088Z,98140.94
2022-12-11T19:52:06.116Z,98148.56
2022-12-11T19:54:34.647Z,98153.19
2022-12-11T19:57:04.309Z,98144.59
2022-12-11T19:59:33.044Z,98138.72
2022-12-11T20:02:02.009Z,98138.22
2022-12-11T20:04:32.366Z,98129.66
2022-12-11T20:07:01.367Z,98131.41
2022-12-11T20:09:30.195Z,98141.75
2022-12-11T20:11:59.289Z,98138.34
2022-12-11T20:14:29.103Z,98143.50
2022-12-11T20:17:14.742Z,98145.16
2022-12-11T20:19:45.392Z,98144.97
2022-12-11T20:22:14.432Z,98161.22
2022-12-11T20:24:42.907Z,98154.94
2022-12-11T20:27:12.550Z,98165.94
2022-12-11T20:29:41.282Z,98170.84
2022-12-11T20:32:12.417Z,98167.31
2022-12-11T20:34:41.354Z,98172.59
2022-12-11T20:37:11.649Z,98166.31
2022-12-11T20:39:40.454Z,98168.91
2022-12-11T20:42:10.758Z,98164.41
2022-12-11T20:44:42.811Z,98164.53
2022-12-11T20:47:16.324Z,98159.47
2022-12-11T20:49:45.054Z,98174.97
2022-12-11T20:52:15.359Z,98180.81
2022-12-11T20:54:44.115Z,98191.13
2022-12-11T20:57:15.030Z,98187.91
2022-12-11T20:59:44.340Z,98190.66
2022-12-11T21:02:13.595Z,98188.06
2022-12-11T21:04:43.722Z,98184.53
2022-12-11T21:07:13.099Z,98181.81
2022-12-11T21:09:43.172Z,98190.72
2022-12-11T21:12:12.092Z,98196.75
2022-12-11T21:14:40.955Z,98190.72
2022-12-11T21:17:09.843Z,98192.47
2022-12-11T21:19:40.069Z,98187.16
2022-12-11T21:22:09.112Z,98197.81
2022-12-11T21:24:39.036Z,98202.28
2022-12-11T21:27:09.438Z,98212.25
2022-12-11T21:29:38.221Z,98217.41
2022-12-11T21:32:07.274Z,98224.06
2022-12-11T21:34:37.785Z,98234.47
2022-12-11T21:37:07.607Z,98238.09
2022-12-11T21:39:39.303Z,98242.47
2022-12-11T21:42:10.031Z,98248.56
2022-12-11T21:47:28.851Z,98240.81
2022-12-11T21:49:57.418Z,98241.69
2022-12-11T21:52:26.416Z,98247.72
2022-12-11T21:54:54.971Z,98250.28
2022-12-11T21:57:26.820Z,98258.91
2022-12-11T21:59:55.632Z,98254.56
2022-12-11T22:02:24.613Z,98251.88
2022-12-11T22:04:53.184Z,98257.09
2022-12-11T22:07:22.005Z,98259.66
2022-12-11T22:09:50.542Z,98256.28
2022-12-11T22:12:25.644Z,98262.25
2022-12-11T22:14:54.219Z,98279.47
2022-12-11T22:17:23.465Z,98275.16
2022-12-11T22:19:52.911Z,98270.03
2022-12-11T22:22:21.732Z,98282.88
2022-12-11T22:24:50.848Z,98282.97
2022-12-11T22:27:23.628Z,98279.50
2022-12-11T22:29:54.168Z,98274.34
2022-12-11T22:32:23.459Z,98274.34
2022-12-11T22:34:51.926Z,98280.31
2022-12-11T22:37:20.829Z,98281.91
2022-12-11T22:39:49.349Z,98268.94
2022-12-11T22:42:18.169Z,98258.66
2022-12-11T22:44:46.788Z,98261.25
2022-12-11T22:47:19.197Z,98253.50
2022-12-11T22:49:47.811Z,98259.53
2022-12-11T22:52:16.720Z,98266.44
2022-12-11T22:54:45.343Z,98269.88
2022-12-11T22:57:14.906Z,98272.53
2022-12-11T22:59:43.374Z,98271.75
2022-12-11T23:02:12.183Z,98278.66
2022-12-11T23:04:42.278Z,98286.47
2022-12-11T23:07:11.122Z,98285.59
2022-12-11T23:09:39.549Z,98285.50
2022-12-11T23:12:08.982Z,98261.38
2022-12-11T23:14:37.597Z,98267.34
2022-12-11T23:17:06.555Z,98269.97
2022-12-11T23:19:35.039Z,98263.06
2022-12-11T23:22:05.359Z,98272.47
2022-12-11T23:24:35.273Z,98269.94
2022-12-11T23:27:04.136Z,98263.91
2022-12-11T23:29:32.651Z,98257.03
2022-12-11T23:32:01.387Z,98258.75
2022-12-11T23:34:29.978Z,98262.16
2022-12-11T23:36:58.835Z,98261.28
2022-12-11T23:39:28.816Z,98264.72
2022-12-11T23:41:57.775Z,98264.78
2022-12-11T23:44:26.453Z,98258.75
2022-12-11T23:46:55.368Z,98248.41
2022-12-11T23:49:23.838Z,98251.00
2022-12-11T23:51:52.900Z,98262.28
2022-12-11T23:54:21.416Z,98254.50
2022-12-11T23:56:51.503Z,98251.88
2022-12-11T23:59:20.001Z,98236.34
